TimeCEST,TemperatureF,Dew PointF,Humidity,Sea Level PressureIn,VisibilityMPH,Wind Direction,Wind SpeedMPH,Gust SpeedMPH,PrecipitationIn,Events,Conditions,WindDirDegrees,DateUTC
12:15 AM,55.4,48.2,77,29.92,6.2,NNW,6.7,-,N/A,,Overcast,330,2012-10-09 22:15:00
12:45 AM,55.4,50.0,82,29.92,-9999.0,NNW,6.7,-,N/A,,Clear,330,2012-10-09 22:45:00
1:15 AM,53.6,46.4,77,29.92,-9999.0,North,11.2,-,N/A,,Clear,350,2012-10-09 23:15:00
1:45 AM,53.6,44.6,72,29.92,-9999.0,North,11.2,-,N/A,,Clear,350,2012-10-09 23:45:00
2:15 AM,53.6,42.8,67,29.95,-9999.0,North,8.9,-,N/A,,Clear,350,2012-10-10 00:15:00
2:45 AM,51.8,41.0,67,29.92,-9999.0,North,8.9,-,N/A,,Clear,360,2012-10-10 00:45:00
3:15 AM,48.2,39.2,71,29.92,-9999.0,North,4.5,-,N/A,,Clear,360,2012-10-10 01:15:00
3:45 AM,-9999,-9999,N/A,-9999,-9999.0,Variable,4.5,-,N/A,,Clear,0,2012-10-10 01:45:00
4:15 AM,44.6,39.2,81,29.95,-9999.0,North,2.2,-,N/A,,Clear,350,2012-10-10 02:15:00
4:45 AM,46.4,39.2,76,29.95,-9999.0,NNW,4.5,-,N/A,,Clear,340,2012-10-10 02:45:00
5:15 AM,44.6,41.0,87,29.95,-9999.0,NNW,6.7,-,N/A,,Clear,330,2012-10-10 03:15:00
5:45 AM,44.6,41.0,87,29.95,-9999.0,NNW,6.7,-,N/A,,Clear,340,2012-10-10 03:45:00
6:15 AM,42.8,39.2,87,29.95,-9999.0,North,8.9,-,N/A,,Clear,350,2012-10-10 04:15:00
6:45 AM,-9999,-9999,N/A,-9999,5.0,Variable,4.5,-,N/A,Rain,Rain,0,2012-10-10 04:45:00
7:15 AM,42.8,39.2,87,29.95,-9999.0,North,4.5,-,N/A,,Clear,360,2012-10-10 05:15:00
7:45 AM,42.8,39.2,87,29.98,-9999.0,North,4.5,-,N/A,,Clear,350,2012-10-10 05:45:00
8:15 AM,46.4,41.0,81,29.98,-9999.0,NNW,4.5,-,N/A,,Clear,330,2012-10-10 06:15:00
8:45 AM,46.4,39.2,76,29.98,-9999.0,NNW,4.5,-,N/A,,Clear,330,2012-10-10 06:45:00
9:15 AM,48.2,39.2,71,29.98,-9999.0,NNW,4.5,-,N/A,,Clear,330,2012-10-10 07:15:00
9:45 AM,-9999,-9999,N/A,-9999,5.0,Variable,4.5,-,N/A,Rain,Rain,0,2012-10-10 07:45:00
10:15 AM,51.8,39.2,62,29.98,-9999.0,NNW,6.7,-,N/A,,Clear,330,2012-10-10 08:15:00
10:45 AM,51.8,39.2,62,29.98,-9999.0,NNW,4.5,-,N/A,,Clear,340,2012-10-10 08:45:00
11:15 AM,53.6,37.4,54,29.98,-9999.0,WNW,2.2,-,N/A,,Clear,300,2012-10-10 09:15:00
11:45 AM,53.6,35.6,51,29.98,-9999.0,WNW,4.5,-,N/A,,Clear,300,2012-10-10 09:45:00
12:15 PM,55.4,35.6,47,29.98,-9999.0,WNW,4.5,-,N/A,,Clear,290,2012-10-10 10:15:00
12:45 PM,-9999,-9999,N/A,-9999,5.0,Variable,4.5,-,N/A,Rain,Rain,0,2012-10-10 10:45:00
1:15 PM,55.4,35.6,47,29.98,6.2,NW,2.2,-,N/A,,Mostly Cloudy,310,2012-10-10 11:15:00
1:45 PM,55.4,35.6,47,29.95,6.2,WNW,4.5,-,N/A,,Mostly Cloudy,290,2012-10-10 11:45:00
2:15 PM,55.4,37.4,51,29.95,6.2,West,2.2,-,N/A,,Mostly Cloudy,280,2012-10-10 12:15:00
2:45 PM,55.4,35.6,47,29.95,6.2,West,4.5,-,N/A,,Mostly Cloudy,270,2012-10-10 12:45:00
3:15 PM,55.4,37.4,51,29.95,6.2,SW,6.7,-,N/A,,Mostly Cloudy,230,2012-10-10 13:15:00
3:45 PM,-9999,-9999,N/A,-9999,6.2,Variable,4.5,-,N/A,,Overcast,0,2012-10-10 13:45:00
4:15 PM,53.6,39.2,58,29.92,6.2,SW,8.9,-,N/A,,Overcast,230,2012-10-10 14:15:00
4:45 PM,51.8,41.0,67,29.92,6.2,SW,6.7,-,N/A,,Overcast,230,2012-10-10 14:45:00
5:15 PM,51.8,39.2,62,29.92,6.2,WSW,6.7,-,N/A,,Overcast,240,2012-10-10 15:15:00
5:45 PM,51.8,39.2,62,29.92,6.2,SW,6.7,-,N/A,,Overcast,230,2012-10-10 15:45:00
6:45 PM,-9999,-9999,N/A,-9999,6.2,Variable,4.5,-,N/A,,Mostly Cloudy,0,2012-10-10 16:45:00
7:15 PM,50.0,41.0,71,29.95,6.2,WSW,4.5,-,N/A,,Overcast,250,2012-10-10 17:15:00
7:45 PM,50.0,41.0,71,29.95,6.2,WSW,4.5,-,N/A,,Overcast,240,2012-10-10 17:45:00
8:15 PM,50.0,42.8,76,29.95,6.2,WSW,4.5,-,N/A,,Overcast,240,2012-10-10 18:15:00
8:45 PM,50.0,44.6,82,29.95,6.2,WSW,4.5,-,N/A,,Overcast,240,2012-10-10 18:45:00
9:15 PM,48.2,44.6,87,29.95,6.2,SW,4.5,-,N/A,,Mostly Cloudy,220,2012-10-10 19:15:00
9:45 PM,-9999,-9999,N/A,-9999,5.0,Variable,4.5,-,N/A,,Scattered Clouds,0,2012-10-10 19:45:00
10:15 PM,44.6,42.8,93,29.95,-9999.0,Calm,Calm,-,N/A,,Clear,0,2012-10-10 20:15:00
10:45 PM,44.6,42.8,93,29.95,-9999.0,Calm,Calm,-,N/A,,Clear,0,2012-10-10 20:45:00
11:15 PM,42.8,41.0,93,29.95,5.0,SSE,2.2,-,N/A,,Unknown,160,2012-10-10 21:15:00